sensor_id;sensor_type;location;lat;lon;timestamp;P1;durP1;ratioP1;P2;durP2;ratioP2
73599;SDS011;61877;48.246;9.220;2023-01-01T00:00:36;184.93;;;85.23;;
73599;SDS011;61877;48.246;9.220;2023-01-01T00:03:02;182.10;;;85.55;;
73599;SDS011;61877;48.246;9.220;2023-01-01T00:05:28;166.90;;;77.97;;
73599;SDS011;61877;48.246;9.220;2023-01-01T00:07:54;168.75;;;76.57;;
73599;SDS011;61877;48.246;9.220;2023-01-01T00:10:19;153.90;;;74.03;;
73599;SDS011;61877;48.246;9.220;2023-01-01T00:12:45;173.67;;;80.87;;
73599;SDS011;61877;48.246;9.220;2023-01-01T00:15:10;352.90;;;150.07;;
73599;SDS011;61877;48.246;9.220;2023-01-01T00:17:35;526.83;;;260.63;;
73599;SDS011;61877;48.246;9.220;2023-01-01T00:20:01;468.20;;;236.80;;
73599;SDS011;61877;48.246;9.220;2023-01-01T00:22:29;444.23;;;209.73;;
73599;SDS011;61877;48.246;9.220;2023-01-01T00:24:54;634.05;;;333.33;;
73599;SDS011;61877;48.246;9.220;2023-01-01T00:27:20;478.93;;;236.67;;
73599;SDS011;61877;48.246;9.220;2023-01-01T00:29:45;499.47;;;249.47;;
73599;SDS011;61877;48.246;9.220;2023-01-01T00:32:10;435.17;;;191.93;;
73599;SDS011;61877;48.246;9.220;2023-01-01T00:34:36;389.10;;;172.57;;
73599;SDS011;61877;48.246;9.220;2023-01-01T00:37:01;368.95;;;160.00;;
73599;SDS011;61877;48.246;9.220;2023-01-01T00:39:28;349.70;;;149.40;;
73599;SDS011;61877;48.246;9.220;2023-01-01T00:41:53;343.05;;;150.65;;
73599;SDS011;61877;48.246;9.220;2023-01-01T00:44:19;248.27;;;112.77;;
73599;SDS011;61877;48.246;9.220;2023-01-01T00:46:44;303.43;;;131.60;;
73599;SDS011;61877;48.246;9.220;2023-01-01T00:49:09;414.03;;;129.10;;
73599;SDS011;61877;48.246;9.220;2023-01-01T00:51:35;397.33;;;129.10;;
73599;SDS011;61877;48.246;9.220;2023-01-01T00:54:00;352.55;;;121.80;;
73599;SDS011;61877;48.246;9.220;2023-01-01T00:56:27;307.67;;;110.27;;
73599;SDS011;61877;48.246;9.220;2023-01-01T00:58:52;237.00;;;94.50;;
73599;SDS011;61877;48.246;9.220;2023-01-01T01:01:17;483.33;;;104.73;;
73599;SDS011;61877;48.246;9.220;2023-01-01T01:03:43;232.80;;;100.67;;
73599;SDS011;61877;48.246;9.220;2023-01-01T01:06:09;215.20;;;98.30;;
73599;SDS011;61877;48.246;9.220;2023-01-01T01:08:36;303.33;;;118.38;;
73599;SDS011;61877;48.246;9.220;2023-01-01T01:11:04;300.67;;;137.68;;
73599;SDS011;61877;48.246;9.220;2023-01-01T01:13:31;381.67;;;158.15;;
73599;SDS011;61877;48.246;9.220;2023-01-01T01:15:56;617.17;;;207.23;;
73599;SDS011;61877;48.246;9.220;2023-01-01T01:18:22;917.75;;;246.07;;
73599;SDS011;61877;48.246;9.220;2023-01-01T01:20:48;859.67;;;229.77;;
73599;SDS011;61877;48.246;9.220;2023-01-01T01:23:14;551.25;;;222.50;;
73599;SDS011;61877;48.246;9.220;2023-01-01T01:25:39;579.07;;;218.63;;
73599;SDS011;61877;48.246;9.220;2023-01-01T01:28:05;525.10;;;195.50;;
73599;SDS011;61877;48.246;9.220;2023-01-01T01:30:31;656.30;;;211.47;;
73599;SDS011;61877;48.246;9.220;2023-01-01T01:32:57;769.80;;;226.77;;
73599;SDS011;61877;48.246;9.220;2023-01-01T01:35:22;775.80;;;215.73;;
73599;SDS011;61877;48.246;9.220;2023-01-01T01:37:48;497.13;;;203.13;;
73599;SDS011;61877;48.246;9.220;2023-01-01T01:40:13;709.97;;;216.43;;
73599;SDS011;61877;48.246;9.220;2023-01-01T01:42:38;428.30;;;195.83;;
73599;SDS011;61877;48.246;9.220;2023-01-01T01:45:05;498.80;;;223.97;;
73599;SDS011;61877;48.246;9.220;2023-01-01T01:47:32;693.95;;;229.32;;
73599;SDS011;61877;48.246;9.220;2023-01-01T01:50:03;449.80;;;208.40;;
73599;SDS011;61877;48.246;9.220;2023-01-01T01:52:33;623.28;;;218.50;;
73599;SDS011;61877;48.246;9.220;2023-01-01T01:55:03;1007.20;;;237.60;;
73599;SDS011;61877;48.246;9.220;2023-01-01T01:57:31;502.77;;;205.88;;
73599;SDS011;61877;48.246;9.220;2023-01-01T01:59:57;428.88;;;186.52;;
73599;SDS011;61877;48.246;9.220;2023-01-01T02:02:26;820.50;;;216.05;;
73599;SDS011;61877;48.246;9.220;2023-01-01T02:04:57;1012.88;;;234.05;;
73599;SDS011;61877;48.246;9.220;2023-01-01T02:07:24;1023.23;;;231.40;;
73599;SDS011;61877;48.246;9.220;2023-01-01T02:09:51;666.13;;;201.90;;
73599;SDS011;61877;48.246;9.220;2023-01-01T02:12:17;768.08;;;205.75;;
73599;SDS011;61877;48.246;9.220;2023-01-01T02:14:42;662.43;;;188.43;;
73599;SDS011;61877;48.246;9.220;2023-01-01T02:17:08;749.27;;;198.33;;
73599;SDS011;61877;48.246;9.220;2023-01-01T02:19:43;723.78;;;192.13;;
73599;SDS011;61877;48.246;9.220;2023-01-01T02:22:21;719.65;;;197.75;;
73599;SDS011;61877;48.246;9.220;2023-01-01T02:24:58;491.67;;;171.85;;
73599;SDS011;61877;48.246;9.220;2023-01-01T02:27:36;621.08;;;188.65;;
73599;SDS011;61877;48.246;9.220;2023-01-01T02:30:10;519.67;;;178.47;;
73599;SDS011;61877;48.246;9.220;2023-01-01T02:32:37;534.97;;;176.15;;
73599;SDS011;61877;48.246;9.220;2023-01-01T02:35:07;644.47;;;192.77;;
73599;SDS011;61877;48.246;9.220;2023-01-01T02:37:38;887.80;;;212.48;;
73599;SDS011;61877;48.246;9.220;2023-01-01T02:40:04;996.45;;;225.85;;
73599;SDS011;61877;48.246;9.220;2023-01-01T02:42:30;999.57;;;216.87;;
73599;SDS011;61877;48.246;9.220;2023-01-01T02:44:57;787.60;;;205.95;;
73599;SDS011;61877;48.246;9.220;2023-01-01T02:47:25;888.25;;;200.77;;
73599;SDS011;61877;48.246;9.220;2023-01-01T02:49:55;608.10;;;166.43;;
73599;SDS011;61877;48.246;9.220;2023-01-01T02:52:35;295.67;;;143.27;;
73599;SDS011;61877;48.246;9.220;2023-01-01T02:55:20;403.17;;;151.13;;
73599;SDS011;61877;48.246;9.220;2023-01-01T02:57:54;520.78;;;155.63;;
73599;SDS011;61877;48.246;9.220;2023-01-01T03:00:25;426.27;;;151.75;;
73599;SDS011;61877;48.246;9.220;2023-01-01T03:02:53;535.90;;;163.53;;
73599;SDS011;61877;48.246;9.220;2023-01-01T03:05:40;414.13;;;159.85;;
73599;SDS011;61877;48.246;9.220;2023-01-01T03:08:13;467.38;;;159.27;;
73599;SDS011;61877;48.246;9.220;2023-01-01T03:10:43;568.70;;;161.80;;
73599;SDS011;61877;48.246;9.220;2023-01-01T03:13:16;523.28;;;155.73;;
73599;SDS011;61877;48.246;9.220;2023-01-01T03:15:53;440.70;;;149.83;;
73599;SDS011;61877;48.246;9.220;2023-01-01T03:18:26;362.30;;;145.10;;
73599;SDS011;61877;48.246;9.220;2023-01-01T03:20:56;437.40;;;151.45;;
73599;SDS011;61877;48.246;9.220;2023-01-01T03:23:26;527.15;;;153.93;;
73599;SDS011;61877;48.246;9.220;2023-01-01T03:25:58;392.70;;;149.88;;
73599;SDS011;61877;48.246;9.220;2023-01-01T03:28:29;503.00;;;146.60;;
73599;SDS011;61877;48.246;9.220;2023-01-01T03:30:59;508.45;;;148.13;;
73599;SDS011;61877;48.246;9.220;2023-01-01T03:33:28;433.02;;;137.93;;
73599;SDS011;61877;48.246;9.220;2023-01-01T03:35:58;358.65;;;132.40;;
73599;SDS011;61877;48.246;9.220;2023-01-01T03:38:29;291.00;;;118.63;;
73599;SDS011;61877;48.246;9.220;2023-01-01T03:40:59;310.05;;;126.15;;
73599;SDS011;61877;48.246;9.220;2023-01-01T03:43:30;376.48;;;132.05;;
73599;SDS011;61877;48.246;9.220;2023-01-01T03:46:11;321.85;;;129.35;;
73599;SDS011;61877;48.246;9.220;2023-01-01T03:48:41;337.45;;;129.32;;
73599;SDS011;61877;48.246;9.220;2023-01-01T03:51:07;369.97;;;121.77;;
73599;SDS011;61877;48.246;9.220;2023-01-01T03:53:41;274.98;;;115.85;;
73599;SDS011;61877;48.246;9.220;2023-01-01T03:56:11;232.52;;;112.20;;
73599;SDS011;61877;48.246;9.220;2023-01-01T03:58:41;332.52;;;119.30;;
73599;SDS011;61877;48.246;9.220;2023-01-01T04:01:13;355.73;;;121.88;;
73599;SDS011;61877;48.246;9.220;2023-01-01T04:03:46;270.00;;;111.93;;
73599;SDS011;61877;48.246;9.220;2023-01-01T04:06:12;310.27;;;114.97;;
73599;SDS011;61877;48.246;9.220;2023-01-01T04:08:38;340.13;;;111.90;;
73599;SDS011;61877;48.246;9.220;2023-01-01T04:11:05;265.03;;;106.07;;
73599;SDS011;61877;48.246;9.220;2023-01-01T04:13:44;386.40;;;118.30;;
73599;SDS011;61877;48.246;9.220;2023-01-01T04:16:10;282.85;;;114.10;;
73599;SDS011;61877;48.246;9.220;2023-01-01T04:18:35;272.43;;;109.20;;
73599;SDS011;61877;48.246;9.220;2023-01-01T04:21:02;298.67;;;110.33;;
73599;SDS011;61877;48.246;9.220;2023-01-01T04:23:28;257.48;;;108.68;;
73599;SDS011;61877;48.246;9.220;2023-01-01T04:25:53;254.20;;;104.57;;
73599;SDS011;61877;48.246;9.220;2023-01-01T04:28:18;195.68;;;92.55;;
73599;SDS011;61877;48.246;9.220;2023-01-01T04:30:44;314.33;;;103.53;;
73599;SDS011;61877;48.246;9.220;2023-01-01T04:33:09;318.10;;;94.80;;
73599;SDS011;61877;48.246;9.220;2023-01-01T04:35:34;329.20;;;95.77;;
73599;SDS011;61877;48.246;9.220;2023-01-01T04:38:01;267.17;;;99.27;;
73599;SDS011;61877;48.246;9.220;2023-01-01T04:40:26;417.60;;;102.20;;
73599;SDS011;61877;48.246;9.220;2023-01-01T04:42:52;220.73;;;89.40;;
73599;SDS011;61877;48.246;9.220;2023-01-01T04:45:17;268.90;;;95.45;;
73599;SDS011;61877;48.246;9.220;2023-01-01T04:47:43;314.67;;;95.67;;
73599;SDS011;61877;48.246;9.220;2023-01-01T04:50:08;340.00;;;92.07;;
73599;SDS011;61877;48.246;9.220;2023-01-01T04:52:34;198.70;;;90.30;;
73599;SDS011;61877;48.246;9.220;2023-01-01T04:55:00;175.63;;;82.32;;
73599;SDS011;61877;48.246;9.220;2023-01-01T04:57:27;264.70;;;90.40;;
73599;SDS011;61877;48.246;9.220;2023-01-01T04:59:53;329.23;;;91.70;;
73599;SDS011;61877;48.246;9.220;2023-01-01T05:02:18;203.30;;;88.83;;
73599;SDS011;61877;48.246;9.220;2023-01-01T05:04:44;181.27;;;84.45;;
73599;SDS011;61877;48.246;9.220;2023-01-01T05:07:09;195.97;;;86.87;;
73599;SDS011;61877;48.246;9.220;2023-01-01T05:09:34;182.87;;;83.13;;
73599;SDS011;61877;48.246;9.220;2023-01-01T05:12:02;199.52;;;84.82;;
73599;SDS011;61877;48.246;9.220;2023-01-01T05:14:27;297.90;;;88.05;;
73599;SDS011;61877;48.246;9.220;2023-01-01T05:16:53;211.67;;;86.67;;
73599;SDS011;61877;48.246;9.220;2023-01-01T05:19:18;256.13;;;89.90;;
73599;SDS011;61877;48.246;9.220;2023-01-01T05:21:43;255.37;;;89.53;;
73599;SDS011;61877;48.246;9.220;2023-01-01T05:24:09;217.40;;;86.53;;
73599;SDS011;61877;48.246;9.220;2023-01-01T05:26:35;228.70;;;84.70;;
73599;SDS011;61877;48.246;9.220;2023-01-01T05:29:03;209.88;;;82.82;;
73599;SDS011;61877;48.246;9.220;2023-01-01T05:31:30;191.32;;;84.28;;
73599;SDS011;61877;48.246;9.220;2023-01-01T05:33:56;205.67;;;80.70;;
73599;SDS011;61877;48.246;9.220;2023-01-01T05:36:22;184.02;;;80.13;;
73599;SDS011;61877;48.246;9.220;2023-01-01T05:38:49;145.97;;;69.60;;
73599;SDS011;61877;48.246;9.220;2023-01-01T05:41:16;221.25;;;72.85;;
73599;SDS011;61877;48.246;9.220;2023-01-01T05:43:43;210.82;;;73.25;;
73599;SDS011;61877;48.246;9.220;2023-01-01T05:46:11;149.48;;;67.50;;
73599;SDS011;61877;48.246;9.220;2023-01-01T05:48:38;244.63;;;69.95;;
73599;SDS011;61877;48.246;9.220;2023-01-01T05:51:04;227.80;;;70.80;;
73599;SDS011;61877;48.246;9.220;2023-01-01T05:53:30;160.50;;;65.18;;
73599;SDS011;61877;48.246;9.220;2023-01-01T05:55:56;164.57;;;66.03;;
73599;SDS011;61877;48.246;9.220;2023-01-01T05:58:22;204.77;;;69.40;;
73599;SDS011;61877;48.246;9.220;2023-01-01T06:00:47;139.87;;;61.37;;
73599;SDS011;61877;48.246;9.220;2023-01-01T06:03:14;192.43;;;66.63;;
73599;SDS011;61877;48.246;9.220;2023-01-01T06:05:39;157.32;;;63.20;;
73599;SDS011;61877;48.246;9.220;2023-01-01T06:08:05;152.67;;;63.73;;
73599;SDS011;61877;48.246;9.220;2023-01-01T06:10:30;180.95;;;62.70;;
73599;SDS011;61877;48.246;9.220;2023-01-01T06:12:56;197.27;;;61.10;;
73599;SDS011;61877;48.246;9.220;2023-01-01T06:15:21;155.50;;;59.07;;
73599;SDS011;61877;48.246;9.220;2023-01-01T06:17:46;158.07;;;58.10;;
73599;SDS011;61877;48.246;9.220;2023-01-01T06:20:13;177.93;;;61.63;;
73599;SDS011;61877;48.246;9.220;2023-01-01T06:22:38;199.95;;;61.15;;
73599;SDS011;61877;48.246;9.220;2023-01-01T06:25:04;183.23;;;62.03;;
73599;SDS011;61877;48.246;9.220;2023-01-01T06:27:30;126.70;;;58.40;;
73599;SDS011;61877;48.246;9.220;2023-01-01T06:29:58;203.03;;;61.33;;
73599;SDS011;61877;48.246;9.220;2023-01-01T06:32:24;185.23;;;57.67;;
73599;SDS011;61877;48.246;9.220;2023-01-01T06:34:49;187.63;;;62.80;;
73599;SDS011;61877;48.246;9.220;2023-01-01T06:37:16;129.73;;;60.10;;
73599;SDS011;61877;48.246;9.220;2023-01-01T06:39:41;191.73;;;60.70;;
73599;SDS011;61877;48.246;9.220;2023-01-01T06:42:07;133.27;;;57.80;;
73599;SDS011;61877;48.246;9.220;2023-01-01T06:44:32;184.90;;;59.70;;
73599;SDS011;61877;48.246;9.220;2023-01-01T06:46:59;202.85;;;61.17;;
73599;SDS011;61877;48.246;9.220;2023-01-01T06:49:25;148.27;;;56.33;;
73599;SDS011;61877;48.246;9.220;2023-01-01T06:51:50;142.70;;;55.80;;
73599;SDS011;61877;48.246;9.220;2023-01-01T06:54:17;145.57;;;56.40;;
73599;SDS011;61877;48.246;9.220;2023-01-01T06:56:42;131.20;;;55.22;;
73599;SDS011;61877;48.246;9.220;2023-01-01T06:59:08;133.43;;;55.20;;
73599;SDS011;61877;48.246;9.220;2023-01-01T07:01:34;129.45;;;53.40;;
73599;SDS011;61877;48.246;9.220;2023-01-01T07:04:02;168.40;;;56.20;;
73599;SDS011;61877;48.246;9.220;2023-01-01T07:06:29;127.23;;;52.10;;
73599;SDS011;61877;48.246;9.220;2023-01-01T07:08:56;117.07;;;53.28;;
73599;SDS011;61877;48.246;9.220;2023-01-01T07:11:23;118.70;;;53.70;;
73599;SDS011;61877;48.246;9.220;2023-01-01T07:13:49;109.80;;;52.50;;
73599;SDS011;61877;48.246;9.220;2023-01-01T07:16:15;108.10;;;49.77;;
73599;SDS011;61877;48.246;9.220;2023-01-01T07:18:41;100.10;;;47.70;;
73599;SDS011;61877;48.246;9.220;2023-01-01T07:21:20;99.22;;;48.65;;
73599;SDS011;61877;48.246;9.220;2023-01-01T07:23:50;112.90;;;51.10;;
73599;SDS011;61877;48.246;9.220;2023-01-01T07:26:15;99.30;;;48.10;;
73599;SDS011;61877;48.246;9.220;2023-01-01T07:28:42;115.33;;;50.53;;
73599;SDS011;61877;48.246;9.220;2023-01-01T07:31:08;110.22;;;48.95;;
73599;SDS011;61877;48.246;9.220;2023-01-01T07:33:34;110.72;;;49.58;;
73599;SDS011;61877;48.246;9.220;2023-01-01T07:36:00;99.00;;;47.67;;
73599;SDS011;61877;48.246;9.220;2023-01-01T07:38:25;91.70;;;45.43;;
73599;SDS011;61877;48.246;9.220;2023-01-01T07:40:51;94.27;;;46.10;;
73599;SDS011;61877;48.246;9.220;2023-01-01T07:43:16;89.90;;;44.23;;
73599;SDS011;61877;48.246;9.220;2023-01-01T07:45:43;92.47;;;45.10;;
73599;SDS011;61877;48.246;9.220;2023-01-01T07:48:09;96.18;;;45.10;;
73599;SDS011;61877;48.246;9.220;2023-01-01T07:50:38;99.85;;;47.22;;
73599;SDS011;61877;48.246;9.220;2023-01-01T07:53:04;110.53;;;48.63;;
73599;SDS011;61877;48.246;9.220;2023-01-01T07:55:29;123.77;;;51.67;;
73599;SDS011;61877;48.246;9.220;2023-01-01T07:57:55;102.77;;;47.83;;
73599;SDS011;61877;48.246;9.220;2023-01-01T08:00:20;87.33;;;43.30;;
73599;SDS011;61877;48.246;9.220;2023-01-01T08:02:47;95.63;;;45.63;;
73599;SDS011;61877;48.246;9.220;2023-01-01T08:05:13;100.77;;;47.23;;
73599;SDS011;61877;48.246;9.220;2023-01-01T08:07:38;89.72;;;44.20;;
73599;SDS011;61877;48.246;9.220;2023-01-01T08:10:04;81.70;;;41.93;;
73599;SDS011;61877;48.246;9.220;2023-01-01T08:12:31;80.20;;;41.83;;
73599;SDS011;61877;48.246;9.220;2023-01-01T08:14:56;89.23;;;44.60;;
73599;SDS011;61877;48.246;9.220;2023-01-01T08:17:22;79.97;;;40.83;;
73599;SDS011;61877;48.246;9.220;2023-01-01T08:19:49;76.63;;;38.65;;
73599;SDS011;61877;48.246;9.220;2023-01-01T08:22:14;85.60;;;40.67;;
73599;SDS011;61877;48.246;9.220;2023-01-01T08:24:40;88.78;;;42.80;;
73599;SDS011;61877;48.246;9.220;2023-01-01T08:27:06;82.80;;;41.23;;
73599;SDS011;61877;48.246;9.220;2023-01-01T08:29:31;87.85;;;44.40;;
73599;SDS011;61877;48.246;9.220;2023-01-01T08:31:57;73.43;;;36.07;;
73599;SDS011;61877;48.246;9.220;2023-01-01T08:34:22;78.63;;;41.23;;
73599;SDS011;61877;48.246;9.220;2023-01-01T08:36:49;75.60;;;40.58;;
73599;SDS011;61877;48.246;9.220;2023-01-01T08:39:15;70.85;;;38.05;;
73599;SDS011;61877;48.246;9.220;2023-01-01T08:41:40;72.80;;;38.63;;
73599;SDS011;61877;48.246;9.220;2023-01-01T08:44:06;64.47;;;35.97;;
73599;SDS011;61877;48.246;9.220;2023-01-01T08:46:31;61.13;;;34.30;;
73599;SDS011;61877;48.246;9.220;2023-01-01T08:48:57;58.70;;;33.30;;
73599;SDS011;61877;48.246;9.220;2023-01-01T08:51:22;61.47;;;35.10;;
73599;SDS011;61877;48.246;9.220;2023-01-01T08:53:49;57.67;;;32.00;;
73599;SDS011;61877;48.246;9.220;2023-01-01T08:56:14;95.72;;;46.42;;
73599;SDS011;61877;48.246;9.220;2023-01-01T08:58:40;85.50;;;42.63;;
73599;SDS011;61877;48.246;9.220;2023-01-01T09:01:07;82.32;;;42.38;;
73599;SDS011;61877;48.246;9.220;2023-01-01T09:03:34;72.43;;;37.60;;
73599;SDS011;61877;48.246;9.220;2023-01-01T09:05:59;63.40;;;34.87;;
73599;SDS011;61877;48.246;9.220;2023-01-01T09:08:24;56.40;;;32.03;;
73599;SDS011;61877;48.246;9.220;2023-01-01T09:10:52;56.55;;;31.13;;
73599;SDS011;61877;48.246;9.220;2023-01-01T09:13:21;54.40;;;31.08;;
73599;SDS011;61877;48.246;9.220;2023-01-01T09:15:47;54.20;;;30.90;;
73599;SDS011;61877;48.246;9.220;2023-01-01T09:18:13;54.83;;;29.80;;
73599;SDS011;61877;48.246;9.220;2023-01-01T09:20:38;53.85;;;31.13;;
73599;SDS011;61877;48.246;9.220;2023-01-01T09:23:04;56.37;;;32.80;;
73599;SDS011;61877;48.246;9.220;2023-01-01T09:25:31;56.05;;;31.67;;
73599;SDS011;61877;48.246;9.220;2023-01-01T09:27:58;63.03;;;33.80;;
73599;SDS011;61877;48.246;9.220;2023-01-01T09:30:28;56.92;;;33.75;;
73599;SDS011;61877;48.246;9.220;2023-01-01T09:32:59;57.95;;;33.17;;
73599;SDS011;61877;48.246;9.220;2023-01-01T09:35:25;51.00;;;29.97;;
73599;SDS011;61877;48.246;9.220;2023-01-01T09:37:50;53.50;;;30.75;;
73599;SDS011;61877;48.246;9.220;2023-01-01T09:40:23;48.57;;;28.43;;
73599;SDS011;61877;48.246;9.220;2023-01-01T09:42:52;47.03;;;27.27;;
73599;SDS011;61877;48.246;9.220;2023-01-01T09:45:33;47.13;;;27.23;;
73599;SDS011;61877;48.246;9.220;2023-01-01T09:48:05;47.25;;;26.90;;
73599;SDS011;61877;48.246;9.220;2023-01-01T09:50:35;44.95;;;26.33;;
73599;SDS011;61877;48.246;9.220;2023-01-01T09:53:03;39.42;;;22.00;;
73599;SDS011;61877;48.246;9.220;2023-01-01T09:55:36;27.70;;;16.63;;
73599;SDS011;61877;48.246;9.220;2023-01-01T09:58:08;23.83;;;14.27;;
73599;SDS011;61877;48.246;9.220;2023-01-01T10:00:35;25.15;;;15.52;;
73599;SDS011;61877;48.246;9.220;2023-01-01T10:03:11;24.15;;;15.68;;
73599;SDS011;61877;48.246;9.220;2023-01-01T10:05:51;26.15;;;16.75;;
73599;SDS011;61877;48.246;9.220;2023-01-01T10:11:08;23.07;;;14.77;;
73599;SDS011;61877;48.246;9.220;2023-01-01T10:13:43;22.42;;;14.02;;
73599;SDS011;61877;48.246;9.220;2023-01-01T10:16:11;21.58;;;13.48;;
73599;SDS011;61877;48.246;9.220;2023-01-01T10:18:42;19.70;;;13.50;;
73599;SDS011;61877;48.246;9.220;2023-01-01T10:21:13;19.98;;;12.43;;
73599;SDS011;61877;48.246;9.220;2023-01-01T10:23:42;17.70;;;11.40;;
73599;SDS011;61877;48.246;9.220;2023-01-01T10:26:15;17.20;;;11.50;;
73599;SDS011;61877;48.246;9.220;2023-01-01T10:28:53;17.30;;;11.20;;
73599;SDS011;61877;48.246;9.220;2023-01-01T10:31:28;18.23;;;11.10;;
73599;SDS011;61877;48.246;9.220;2023-01-01T10:33:56;17.33;;;11.65;;
73599;SDS011;61877;48.246;9.220;2023-01-01T10:36:22;21.13;;;14.13;;
73599;SDS011;61877;48.246;9.220;2023-01-01T10:38:49;20.17;;;14.02;;
73599;SDS011;61877;48.246;9.220;2023-01-01T10:41:15;22.93;;;16.27;;
73599;SDS011;61877;48.246;9.220;2023-01-01T10:43:41;22.05;;;15.23;;
73599;SDS011;61877;48.246;9.220;2023-01-01T10:46:10;20.98;;;15.40;;
73599;SDS011;61877;48.246;9.220;2023-01-01T10:48:39;20.50;;;14.87;;
73599;SDS011;61877;48.246;9.220;2023-01-01T10:51:18;19.92;;;15.27;;
73599;SDS011;61877;48.246;9.220;2023-01-01T10:53:48;22.38;;;15.85;;
73599;SDS011;61877;48.246;9.220;2023-01-01T10:56:15;20.23;;;15.23;;
73599;SDS011;61877;48.246;9.220;2023-01-01T10:58:43;21.08;;;15.75;;
73599;SDS011;61877;48.246;9.220;2023-01-01T11:01:11;19.37;;;14.37;;
73599;SDS011;61877;48.246;9.220;2023-01-01T11:03:54;19.20;;;13.98;;
73599;SDS011;61877;48.246;9.220;2023-01-01T11:06:22;18.42;;;13.45;;
73599;SDS011;61877;48.246;9.220;2023-01-01T11:08:50;18.27;;;13.40;;
73599;SDS011;61877;48.246;9.220;2023-01-01T11:11:21;17.23;;;13.05;;
73599;SDS011;61877;48.246;9.220;2023-01-01T11:13:52;15.80;;;12.00;;
73599;SDS011;61877;48.246;9.220;2023-01-01T11:16:20;17.52;;;13.07;;
73599;SDS011;61877;48.246;9.220;2023-01-01T11:18:46;17.67;;;13.07;;
73599;SDS011;61877;48.246;9.220;2023-01-01T11:21:18;13.98;;;9.60;;
73599;SDS011;61877;48.246;9.220;2023-01-01T11:23:45;11.38;;;7.53;;
73599;SDS011;61877;48.246;9.220;2023-01-01T11:26:18;11.47;;;7.60;;
73599;SDS011;61877;48.246;9.220;2023-01-01T11:28:57;9.68;;;5.78;;
73599;SDS011;61877;48.246;9.220;2023-01-01T11:31:26;11.93;;;6.72;;
73599;SDS011;61877;48.246;9.220;2023-01-01T11:33:54;11.45;;;7.03;;
73599;SDS011;61877;48.246;9.220;2023-01-01T11:36:22;12.13;;;6.53;;
73599;SDS011;61877;48.246;9.220;2023-01-01T11:38:50;11.90;;;6.78;;
73599;SDS011;61877;48.246;9.220;2023-01-01T11:41:38;9.05;;;5.20;;
73599;SDS011;61877;48.246;9.220;2023-01-01T11:44:06;8.30;;;4.30;;
73599;SDS011;61877;48.246;9.220;2023-01-01T11:46:38;8.00;;;4.38;;
73599;SDS011;61877;48.246;9.220;2023-01-01T11:49:08;8.30;;;3.90;;
73599;SDS011;61877;48.246;9.220;2023-01-01T11:51:38;7.88;;;3.90;;
73599;SDS011;61877;48.246;9.220;2023-01-01T11:54:18;7.72;;;4.10;;
73599;SDS011;61877;48.246;9.220;2023-01-01T11:56:48;8.93;;;4.03;;
73599;SDS011;61877;48.246;9.220;2023-01-01T11:59:17;8.85;;;3.80;;
73599;SDS011;61877;48.246;9.220;2023-01-01T12:01:51;9.00;;;4.00;;
73599;SDS011;61877;48.246;9.220;2023-01-01T12:04:21;7.88;;;3.83;;
73599;SDS011;61877;48.246;9.220;2023-01-01T12:06:51;7.78;;;3.50;;
73599;SDS011;61877;48.246;9.220;2023-01-01T12:09:22;7.45;;;3.45;;
73599;SDS011;61877;48.246;9.220;2023-01-01T12:11:51;8.18;;;3.38;;
73599;SDS011;61877;48.246;9.220;2023-01-01T12:14:27;7.60;;;3.60;;
73599;SDS011;61877;48.246;9.220;2023-01-01T12:17:02;8.40;;;3.65;;
73599;SDS011;61877;48.246;9.220;2023-01-01T12:19:31;7.22;;;3.15;;
73599;SDS011;61877;48.246;9.220;2023-01-01T12:22:04;6.68;;;2.92;;
73599;SDS011;61877;48.246;9.220;2023-01-01T12:24:38;7.85;;;2.78;;
73599;SDS011;61877;48.246;9.220;2023-01-01T12:27:09;6.93;;;2.30;;
73599;SDS011;61877;48.246;9.220;2023-01-01T12:29:45;6.80;;;2.67;;
73599;SDS011;61877;48.246;9.220;2023-01-01T12:32:24;7.53;;;2.80;;
73599;SDS011;61877;48.246;9.220;2023-01-01T12:35:00;6.20;;;2.47;;
73599;SDS011;61877;48.246;9.220;2023-01-01T12:37:37;8.57;;;3.00;;
73599;SDS011;61877;48.246;9.220;2023-01-01T12:40:28;8.43;;;3.00;;
73599;SDS011;61877;48.246;9.220;2023-01-01T12:42:59;7.53;;;3.20;;
73599;SDS011;61877;48.246;9.220;2023-01-01T12:45:31;7.82;;;3.20;;
73599;SDS011;61877;48.246;9.220;2023-01-01T12:48:15;7.33;;;3.30;;
73599;SDS011;61877;48.246;9.220;2023-01-01T12:50:56;8.02;;;3.10;;
73599;SDS011;61877;48.246;9.220;2023-01-01T12:53:31;7.72;;;3.30;;
73599;SDS011;61877;48.246;9.220;2023-01-01T12:56:11;8.95;;;4.32;;
73599;SDS011;61877;48.246;9.220;2023-01-01T12:58:39;7.47;;;3.40;;
73599;SDS011;61877;48.246;9.220;2023-01-01T13:01:08;8.20;;;3.80;;
73599;SDS011;61877;48.246;9.220;2023-01-01T13:03:44;7.78;;;3.70;;
73599;SDS011;61877;48.246;9.220;2023-01-01T13:06:13;7.80;;;3.17;;
73599;SDS011;61877;48.246;9.220;2023-01-01T13:08:41;9.38;;;3.30;;
73599;SDS011;61877;48.246;9.220;2023-01-01T13:11:14;7.18;;;2.83;;
73599;SDS011;61877;48.246;9.220;2023-01-01T13:13:40;7.73;;;2.97;;
73599;SDS011;61877;48.246;9.220;2023-01-01T13:16:08;6.65;;;2.70;;
73599;SDS011;61877;48.246;9.220;2023-01-01T13:18:36;8.05;;;3.10;;
73599;SDS011;61877;48.246;9.220;2023-01-01T13:21:05;7.95;;;2.70;;
73599;SDS011;61877;48.246;9.220;2023-01-01T13:23:49;9.52;;;3.28;;
73599;SDS011;61877;48.246;9.220;2023-01-01T13:26:31;9.83;;;3.30;;
73599;SDS011;61877;48.246;9.220;2023-01-01T13:32:04;11.80;;;4.60;;
73599;SDS011;61877;48.246;9.220;2023-01-01T13:37:41;9.05;;;3.67;;
73599;SDS011;61877;48.246;9.220;2023-01-01T13:40:31;8.50;;;3.40;;
73599;SDS011;61877;48.246;9.220;2023-01-01T13:43:28;10.70;;;4.07;;
73599;SDS011;61877;48.246;9.220;2023-01-01T13:45:58;9.18;;;4.05;;
73599;SDS011;61877;48.246;9.220;2023-01-01T13:51:44;9.63;;;3.58;;
73599;SDS011;61877;48.246;9.220;2023-01-01T13:54:39;8.00;;;3.20;;
73599;SDS011;61877;48.246;9.220;2023-01-01T13:57:33;8.70;;;3.40;;
73599;SDS011;61877;48.246;9.220;2023-01-01T14:00:21;11.13;;;5.28;;
73599;SDS011;61877;48.246;9.220;2023-01-01T14:02:48;9.70;;;3.90;;
73599;SDS011;61877;48.246;9.220;2023-01-01T14:05:19;11.98;;;5.00;;
73599;SDS011;61877;48.246;9.220;2023-01-01T14:07:52;8.63;;;3.60;;
73599;SDS011;61877;48.246;9.220;2023-01-01T14:10:21;8.20;;;3.70;;
73599;SDS011;61877;48.246;9.220;2023-01-01T14:12:49;9.98;;;3.28;;
73599;SDS011;61877;48.246;9.220;2023-01-01T14:15:21;10.60;;;4.47;;
73599;SDS011;61877;48.246;9.220;2023-01-01T14:17:49;9.82;;;4.80;;
73599;SDS011;61877;48.246;9.220;2023-01-01T14:20:16;10.17;;;5.00;;
73599;SDS011;61877;48.246;9.220;2023-01-01T14:22:47;10.63;;;4.72;;
73599;SDS011;61877;48.246;9.220;2023-01-01T14:25:27;13.30;;;5.82;;
73599;SDS011;61877;48.246;9.220;2023-01-01T14:27:54;15.20;;;7.40;;
73599;SDS011;61877;48.246;9.220;2023-01-01T14:30:21;15.57;;;7.10;;
73599;SDS011;61877;48.246;9.220;2023-01-01T14:32:54;13.83;;;6.97;;
73599;SDS011;61877;48.246;9.220;2023-01-01T14:35:20;18.90;;;9.07;;
73599;SDS011;61877;48.246;9.220;2023-01-01T14:37:45;21.60;;;9.60;;